sensor_id;sensor_type;location;lat;lon;timestamp;P1;durP1;ratioP1;P2;durP2;ratioP2
17618;SDS011;8928;51.678;6.074;2022-08-19T00:02:38;24.20;;;17.67;;
17618;SDS011;8928;51.678;6.074;2022-08-19T00:05:25;29.70;;;18.93;;
17618;SDS011;8928;51.678;6.074;2022-08-19T00:08:12;27.60;;;18.60;;
17618;SDS011;8928;51.678;6.074;2022-08-19T00:10:59;28.00;;;18.07;;
17618;SDS011;8928;51.678;6.074;2022-08-19T00:13:47;24.30;;;17.03;;
17618;SDS011;8928;51.678;6.074;2022-08-19T00:16:35;29.30;;;19.23;;
17618;SDS011;8928;51.678;6.074;2022-08-19T00:19:25;25.87;;;18.30;;
17618;SDS011;8928;51.678;6.074;2022-08-19T00:22:12;26.57;;;18.57;;
17618;SDS011;8928;51.678;6.074;2022-08-19T00:24:59;26.13;;;17.47;;
17618;SDS011;8928;51.678;6.074;2022-08-19T00:27:47;25.20;;;16.97;;
17618;SDS011;8928;51.678;6.074;2022-08-19T00:30:34;21.70;;;15.03;;
17618;SDS011;8928;51.678;6.074;2022-08-19T00:33:22;21.93;;;14.90;;
17618;SDS011;8928;51.678;6.074;2022-08-19T00:36:11;19.50;;;14.27;;
17618;SDS011;8928;51.678;6.074;2022-08-19T00:38:58;22.53;;;14.03;;
17618;SDS011;8928;51.678;6.074;2022-08-19T00:41:46;21.00;;;14.00;;
17618;SDS011;8928;51.678;6.074;2022-08-19T00:44:35;19.60;;;14.07;;
17618;SDS011;8928;51.678;6.074;2022-08-19T00:47:22;26.83;;;15.50;;
17618;SDS011;8928;51.678;6.074;2022-08-19T00:50:09;23.30;;;14.90;;
17618;SDS011;8928;51.678;6.074;2022-08-19T00:53:00;23.33;;;15.67;;
17618;SDS011;8928;51.678;6.074;2022-08-19T00:55:50;26.27;;;16.83;;
17618;SDS011;8928;51.678;6.074;2022-08-19T00:58:39;25.00;;;17.53;;
17618;SDS011;8928;51.678;6.074;2022-08-19T01:01:26;26.83;;;17.37;;
17618;SDS011;8928;51.678;6.074;2022-08-19T01:04:14;28.20;;;17.80;;
17618;SDS011;8928;51.678;6.074;2022-08-19T01:07:01;25.10;;;17.63;;
17618;SDS011;8928;51.678;6.074;2022-08-19T01:09:50;28.23;;;17.80;;
17618;SDS011;8928;51.678;6.074;2022-08-19T01:12:37;25.10;;;17.50;;
17618;SDS011;8928;51.678;6.074;2022-08-19T01:15:26;27.67;;;17.63;;
17618;SDS011;8928;51.678;6.074;2022-08-19T01:18:18;26.13;;;17.87;;
17618;SDS011;8928;51.678;6.074;2022-08-19T01:21:08;27.63;;;18.70;;
17618;SDS011;8928;51.678;6.074;2022-08-19T01:24:02;24.83;;;18.50;;
17618;SDS011;8928;51.678;6.074;2022-08-19T01:26:50;24.00;;;17.60;;
17618;SDS011;8928;51.678;6.074;2022-08-19T01:29:38;24.73;;;16.93;;
17618;SDS011;8928;51.678;6.074;2022-08-19T01:32:27;24.50;;;16.97;;
17618;SDS011;8928;51.678;6.074;2022-08-19T01:35:16;29.87;;;19.03;;
17618;SDS011;8928;51.678;6.074;2022-08-19T01:38:05;30.33;;;19.03;;
17618;SDS011;8928;51.678;6.074;2022-08-19T01:40:57;30.20;;;19.37;;
17618;SDS011;8928;51.678;6.074;2022-08-19T01:43:45;32.50;;;19.57;;
17618;SDS011;8928;51.678;6.074;2022-08-19T01:46:32;28.83;;;18.17;;
17618;SDS011;8928;51.678;6.074;2022-08-19T01:49:21;28.20;;;19.03;;
17618;SDS011;8928;51.678;6.074;2022-08-19T01:52:10;27.90;;;18.67;;
17618;SDS011;8928;51.678;6.074;2022-08-19T01:54:57;27.67;;;19.17;;
17618;SDS011;8928;51.678;6.074;2022-08-19T01:57:47;30.27;;;18.80;;
17618;SDS011;8928;51.678;6.074;2022-08-19T02:00:38;25.10;;;17.10;;
17618;SDS011;8928;51.678;6.074;2022-08-19T02:03:25;27.63;;;16.70;;
17618;SDS011;8928;51.678;6.074;2022-08-19T02:06:12;24.60;;;15.70;;
17618;SDS011;8928;51.678;6.074;2022-08-19T02:09:02;20.60;;;15.40;;
17618;SDS011;8928;51.678;6.074;2022-08-19T02:11:49;23.67;;;15.80;;
17618;SDS011;8928;51.678;6.074;2022-08-19T02:14:38;25.77;;;16.87;;
17618;SDS011;8928;51.678;6.074;2022-08-19T02:17:25;22.73;;;16.60;;
17618;SDS011;8928;51.678;6.074;2022-08-19T02:20:14;25.60;;;17.53;;
17618;SDS011;8928;51.678;6.074;2022-08-19T02:23:02;25.97;;;17.07;;
17618;SDS011;8928;51.678;6.074;2022-08-19T02:25:49;26.57;;;17.43;;
17618;SDS011;8928;51.678;6.074;2022-08-19T02:28:38;26.70;;;17.40;;
17618;SDS011;8928;51.678;6.074;2022-08-19T02:31:27;27.43;;;18.80;;
17618;SDS011;8928;51.678;6.074;2022-08-19T02:34:14;31.90;;;19.07;;
17618;SDS011;8928;51.678;6.074;2022-08-19T02:37:02;28.97;;;18.33;;
17618;SDS011;8928;51.678;6.074;2022-08-19T02:39:49;30.63;;;21.10;;
17618;SDS011;8928;51.678;6.074;2022-08-19T02:42:35;29.33;;;19.47;;
17618;SDS011;8928;51.678;6.074;2022-08-19T02:45:23;28.73;;;19.63;;
17618;SDS011;8928;51.678;6.074;2022-08-19T02:48:11;33.70;;;19.00;;
17618;SDS011;8928;51.678;6.074;2022-08-19T02:50:59;29.60;;;18.80;;
17618;SDS011;8928;51.678;6.074;2022-08-19T02:53:46;28.50;;;17.67;;
17618;SDS011;8928;51.678;6.074;2022-08-19T02:56:33;34.60;;;19.00;;
17618;SDS011;8928;51.678;6.074;2022-08-19T02:59:22;33.93;;;18.30;;
17618;SDS011;8928;51.678;6.074;2022-08-19T03:02:09;27.60;;;17.90;;
17618;SDS011;8928;51.678;6.074;2022-08-19T03:04:58;31.53;;;19.97;;
17618;SDS011;8928;51.678;6.074;2022-08-19T03:07:46;34.63;;;19.23;;
17618;SDS011;8928;51.678;6.074;2022-08-19T03:10:33;29.43;;;18.67;;
17618;SDS011;8928;51.678;6.074;2022-08-19T03:13:27;32.10;;;19.23;;
17618;SDS011;8928;51.678;6.074;2022-08-19T03:16:14;31.40;;;19.00;;
17618;SDS011;8928;51.678;6.074;2022-08-19T03:19:02;29.17;;;19.03;;
17618;SDS011;8928;51.678;6.074;2022-08-19T03:21:51;32.00;;;18.53;;
17618;SDS011;8928;51.678;6.074;2022-08-19T03:24:38;30.13;;;18.13;;
17618;SDS011;8928;51.678;6.074;2022-08-19T03:27:26;30.13;;;17.87;;
17618;SDS011;8928;51.678;6.074;2022-08-19T03:30:14;31.13;;;18.63;;
17618;SDS011;8928;51.678;6.074;2022-08-19T03:33:01;28.07;;;17.80;;
17618;SDS011;8928;51.678;6.074;2022-08-19T03:35:58;29.53;;;18.37;;
17618;SDS011;8928;51.678;6.074;2022-08-19T03:38:49;30.57;;;18.73;;
17618;SDS011;8928;51.678;6.074;2022-08-19T03:41:40;25.57;;;16.90;;
17618;SDS011;8928;51.678;6.074;2022-08-19T03:44:29;24.93;;;15.63;;
17618;SDS011;8928;51.678;6.074;2022-08-19T03:47:17;23.73;;;14.47;;
17618;SDS011;8928;51.678;6.074;2022-08-19T03:50:04;28.90;;;14.50;;
17618;SDS011;8928;51.678;6.074;2022-08-19T03:52:52;26.93;;;16.37;;
17618;SDS011;8928;51.678;6.074;2022-08-19T03:55:41;31.93;;;17.33;;
17618;SDS011;8928;51.678;6.074;2022-08-19T03:58:28;28.47;;;17.67;;
17618;SDS011;8928;51.678;6.074;2022-08-19T04:01:17;30.60;;;18.30;;
17618;SDS011;8928;51.678;6.074;2022-08-19T04:04:05;33.70;;;19.10;;
17618;SDS011;8928;51.678;6.074;2022-08-19T04:06:52;30.30;;;18.33;;
17618;SDS011;8928;51.678;6.074;2022-08-19T04:09:39;30.00;;;18.87;;
17618;SDS011;8928;51.678;6.074;2022-08-19T04:12:28;45.97;;;23.50;;
17618;SDS011;8928;51.678;6.074;2022-08-19T04:15:15;42.50;;;22.73;;
17618;SDS011;8928;51.678;6.074;2022-08-19T04:18:02;42.43;;;22.77;;
17618;SDS011;8928;51.678;6.074;2022-08-19T04:20:51;49.80;;;23.47;;
17618;SDS011;8928;51.678;6.074;2022-08-19T04:23:38;41.13;;;23.73;;
17618;SDS011;8928;51.678;6.074;2022-08-19T04:26:26;51.03;;;26.10;;
17618;SDS011;8928;51.678;6.074;2022-08-19T04:29:19;44.70;;;24.57;;
17618;SDS011;8928;51.678;6.074;2022-08-19T04:32:10;48.53;;;24.43;;
17618;SDS011;8928;51.678;6.074;2022-08-19T04:34:59;42.77;;;22.77;;
17618;SDS011;8928;51.678;6.074;2022-08-19T04:37:46;40.27;;;20.50;;
17618;SDS011;8928;51.678;6.074;2022-08-19T04:40:33;29.47;;;18.30;;
17618;SDS011;8928;51.678;6.074;2022-08-19T04:43:38;30.90;;;18.80;;
17618;SDS011;8928;51.678;6.074;2022-08-19T04:46:27;35.97;;;20.53;;
17618;SDS011;8928;51.678;6.074;2022-08-19T04:49:16;35.00;;;20.90;;
17618;SDS011;8928;51.678;6.074;2022-08-19T04:52:04;37.07;;;21.17;;
17618;SDS011;8928;51.678;6.074;2022-08-19T04:54:51;36.47;;;21.23;;
17618;SDS011;8928;51.678;6.074;2022-08-19T04:57:40;41.17;;;22.00;;
17618;SDS011;8928;51.678;6.074;2022-08-19T05:00:27;39.00;;;21.40;;
17618;SDS011;8928;51.678;6.074;2022-08-19T05:03:16;48.87;;;24.63;;
17618;SDS011;8928;51.678;6.074;2022-08-19T05:06:04;42.07;;;23.67;;
17618;SDS011;8928;51.678;6.074;2022-08-19T05:08:52;44.73;;;23.07;;
17618;SDS011;8928;51.678;6.074;2022-08-19T05:11:39;44.37;;;23.10;;
17618;SDS011;8928;51.678;6.074;2022-08-19T05:14:27;39.20;;;22.57;;
17618;SDS011;8928;51.678;6.074;2022-08-19T05:17:14;48.90;;;25.07;;
17618;SDS011;8928;51.678;6.074;2022-08-19T05:20:04;61.03;;;31.97;;
17618;SDS011;8928;51.678;6.074;2022-08-19T05:23:10;72.17;;;36.23;;
17618;SDS011;8928;51.678;6.074;2022-08-19T05:26:00;81.23;;;38.97;;
17618;SDS011;8928;51.678;6.074;2022-08-19T05:28:47;97.17;;;42.67;;
17618;SDS011;8928;51.678;6.074;2022-08-19T05:31:34;80.43;;;39.03;;
17618;SDS011;8928;51.678;6.074;2022-08-19T05:34:24;78.60;;;38.47;;
17618;SDS011;8928;51.678;6.074;2022-08-19T05:37:13;85.47;;;39.40;;
17618;SDS011;8928;51.678;6.074;2022-08-19T05:40:00;98.20;;;43.80;;
17618;SDS011;8928;51.678;6.074;2022-08-19T05:42:48;119.77;;;48.27;;
17618;SDS011;8928;51.678;6.074;2022-08-19T05:45:37;123.73;;;49.03;;
17618;SDS011;8928;51.678;6.074;2022-08-19T05:48:25;108.30;;;45.30;;
17618;SDS011;8928;51.678;6.074;2022-08-19T05:51:13;112.17;;;47.40;;
17618;SDS011;8928;51.678;6.074;2022-08-19T05:54:02;125.27;;;48.63;;
17618;SDS011;8928;51.678;6.074;2022-08-19T05:56:52;140.37;;;52.73;;
17618;SDS011;8928;51.678;6.074;2022-08-19T05:59:40;136.73;;;53.33;;
17618;SDS011;8928;51.678;6.074;2022-08-19T06:02:27;131.50;;;51.57;;
17618;SDS011;8928;51.678;6.074;2022-08-19T06:05:15;132.77;;;52.43;;
17618;SDS011;8928;51.678;6.074;2022-08-19T06:08:03;137.10;;;53.57;;
17618;SDS011;8928;51.678;6.074;2022-08-19T06:10:52;128.60;;;52.60;;
17618;SDS011;8928;51.678;6.074;2022-08-19T06:13:39;131.13;;;54.53;;
17618;SDS011;8928;51.678;6.074;2022-08-19T06:16:27;129.53;;;52.93;;
17618;SDS011;8928;51.678;6.074;2022-08-19T06:19:17;133.90;;;53.53;;
17618;SDS011;8928;51.678;6.074;2022-08-19T06:22:07;135.50;;;53.13;;
17618;SDS011;8928;51.678;6.074;2022-08-19T06:24:55;131.27;;;53.53;;
17618;SDS011;8928;51.678;6.074;2022-08-19T06:27:44;127.87;;;51.73;;
17618;SDS011;8928;51.678;6.074;2022-08-19T06:30:31;120.43;;;48.97;;
17618;SDS011;8928;51.678;6.074;2022-08-19T06:33:18;120.00;;;49.97;;
17618;SDS011;8928;51.678;6.074;2022-08-19T06:36:05;118.20;;;47.80;;
17618;SDS011;8928;51.678;6.074;2022-08-19T06:38:53;117.43;;;46.60;;
17618;SDS011;8928;51.678;6.074;2022-08-19T06:41:41;115.40;;;46.50;;
17618;SDS011;8928;51.678;6.074;2022-08-19T06:44:33;114.97;;;45.73;;
17618;SDS011;8928;51.678;6.074;2022-08-19T06:47:21;108.13;;;46.23;;
17618;SDS011;8928;51.678;6.074;2022-08-19T06:50:08;116.80;;;46.80;;
17618;SDS011;8928;51.678;6.074;2022-08-19T06:52:56;108.60;;;46.58;;
17618;SDS011;8928;51.678;6.074;2022-08-19T06:55:43;102.53;;;46.35;;
17618;SDS011;8928;51.678;6.074;2022-08-19T06:58:30;102.32;;;46.13;;
17618;SDS011;8928;51.678;6.074;2022-08-19T07:01:19;97.32;;;43.85;;
17618;SDS011;8928;51.678;6.074;2022-08-19T07:04:07;103.53;;;46.08;;
17618;SDS011;8928;51.678;6.074;2022-08-19T07:06:58;94.10;;;45.05;;
17618;SDS011;8928;51.678;6.074;2022-08-19T07:09:48;92.82;;;45.05;;
17618;SDS011;8928;51.678;6.074;2022-08-19T07:12:38;92.97;;;45.55;;
17618;SDS011;8928;51.678;6.074;2022-08-19T07:15:26;93.22;;;44.60;;
17618;SDS011;8928;51.678;6.074;2022-08-19T07:18:14;87.10;;;43.47;;
17618;SDS011;8928;51.678;6.074;2022-08-19T07:21:02;85.65;;;43.70;;
17618;SDS011;8928;51.678;6.074;2022-08-19T07:23:51;92.60;;;44.60;;
17618;SDS011;8928;51.678;6.074;2022-08-19T07:26:39;84.55;;;41.33;;
17618;SDS011;8928;51.678;6.074;2022-08-19T07:29:29;81.60;;;41.15;;
17618;SDS011;8928;51.678;6.074;2022-08-19T07:32:18;85.55;;;41.70;;
17618;SDS011;8928;51.678;6.074;2022-08-19T07:35:07;79.65;;;41.28;;
17618;SDS011;8928;51.678;6.074;2022-08-19T07:37:55;75.45;;;40.10;;
17618;SDS011;8928;51.678;6.074;2022-08-19T07:40:43;80.65;;;40.95;;
17618;SDS011;8928;51.678;6.074;2022-08-19T07:43:31;81.05;;;40.83;;
17618;SDS011;8928;51.678;6.074;2022-08-19T07:46:18;76.20;;;40.25;;
17618;SDS011;8928;51.678;6.074;2022-08-19T07:49:06;79.22;;;39.47;;
17618;SDS011;8928;51.678;6.074;2022-08-19T07:52:05;71.63;;;38.00;;
17618;SDS011;8928;51.678;6.074;2022-08-19T07:54:54;69.00;;;36.58;;
17618;SDS011;8928;51.678;6.074;2022-08-19T07:57:41;63.80;;;36.35;;
17618;SDS011;8928;51.678;6.074;2022-08-19T08:00:28;69.35;;;35.92;;
17618;SDS011;8928;51.678;6.074;2022-08-19T08:03:16;70.10;;;36.33;;
17618;SDS011;8928;51.678;6.074;2022-08-19T08:06:05;63.47;;;35.40;;
17618;SDS011;8928;51.678;6.074;2022-08-19T08:09:13;64.78;;;34.97;;
17618;SDS011;8928;51.678;6.074;2022-08-19T08:12:07;61.42;;;32.72;;
17618;SDS011;8928;51.678;6.074;2022-08-19T08:14:58;58.67;;;32.15;;
17618;SDS011;8928;51.678;6.074;2022-08-19T08:17:47;55.97;;;32.10;;
17618;SDS011;8928;51.678;6.074;2022-08-19T08:20:35;58.08;;;31.38;;
17618;SDS011;8928;51.678;6.074;2022-08-19T08:23:22;53.00;;;30.23;;
17618;SDS011;8928;51.678;6.074;2022-08-19T08:26:11;53.13;;;29.67;;
17618;SDS011;8928;51.678;6.074;2022-08-19T08:28:59;48.92;;;28.08;;
17618;SDS011;8928;51.678;6.074;2022-08-19T08:31:47;47.38;;;27.45;;
17618;SDS011;8928;51.678;6.074;2022-08-19T08:34:34;49.50;;;27.27;;
17618;SDS011;8928;51.678;6.074;2022-08-19T08:37:22;49.40;;;27.02;;
17618;SDS011;8928;51.678;6.074;2022-08-19T08:40:10;51.08;;;26.92;;
17618;SDS011;8928;51.678;6.074;2022-08-19T08:43:07;45.17;;;26.45;;
17618;SDS011;8928;51.678;6.074;2022-08-19T08:46:05;43.00;;;25.40;;
17618;SDS011;8928;51.678;6.074;2022-08-19T08:48:56;36.35;;;22.50;;
17618;SDS011;8928;51.678;6.074;2022-08-19T08:51:50;36.22;;;22.25;;
17618;SDS011;8928;51.678;6.074;2022-08-19T08:54:42;40.88;;;24.17;;
17618;SDS011;8928;51.678;6.074;2022-08-19T08:57:34;35.42;;;21.35;;
17618;SDS011;8928;51.678;6.074;2022-08-19T09:00:25;37.58;;;20.25;;
17618;SDS011;8928;51.678;6.074;2022-08-19T09:03:16;31.20;;;18.88;;
17618;SDS011;8928;51.678;6.074;2022-08-19T09:06:06;30.67;;;16.67;;
17618;SDS011;8928;51.678;6.074;2022-08-19T09:08:59;30.48;;;17.40;;
17618;SDS011;8928;51.678;6.074;2022-08-19T09:11:53;31.30;;;18.30;;
17618;SDS011;8928;51.678;6.074;2022-08-19T09:14:47;28.38;;;18.60;;
17618;SDS011;8928;51.678;6.074;2022-08-19T09:17:38;27.73;;;17.30;;
17618;SDS011;8928;51.678;6.074;2022-08-19T09:20:26;29.75;;;17.58;;
17618;SDS011;8928;51.678;6.074;2022-08-19T09:23:13;29.85;;;17.17;;
17618;SDS011;8928;51.678;6.074;2022-08-19T09:26:00;25.48;;;16.25;;
17618;SDS011;8928;51.678;6.074;2022-08-19T09:28:48;21.00;;;13.35;;
17618;SDS011;8928;51.678;6.074;2022-08-19T09:31:37;18.25;;;12.27;;
17618;SDS011;8928;51.678;6.074;2022-08-19T09:34:26;23.42;;;12.20;;
17618;SDS011;8928;51.678;6.074;2022-08-19T09:37:14;23.23;;;13.80;;
17618;SDS011;8928;51.678;6.074;2022-08-19T09:40:02;20.92;;;12.02;;
17618;SDS011;8928;51.678;6.074;2022-08-19T09:42:50;21.38;;;11.90;;
17618;SDS011;8928;51.678;6.074;2022-08-19T09:45:37;21.38;;;12.95;;
17618;SDS011;8928;51.678;6.074;2022-08-19T09:48:24;20.92;;;11.05;;
17618;SDS011;8928;51.678;6.074;2022-08-19T09:51:14;23.95;;;13.48;;
17618;SDS011;8928;51.678;6.074;2022-08-19T09:54:02;24.13;;;12.90;;
17618;SDS011;8928;51.678;6.074;2022-08-19T09:56:50;20.67;;;11.48;;
17618;SDS011;8928;51.678;6.074;2022-08-19T09:59:38;19.17;;;11.20;;
17618;SDS011;8928;51.678;6.074;2022-08-19T10:02:25;17.55;;;10.93;;
17618;SDS011;8928;51.678;6.074;2022-08-19T10:05:13;17.10;;;10.60;;
17618;SDS011;8928;51.678;6.074;2022-08-19T10:08:20;18.10;;;10.73;;
17618;SDS011;8928;51.678;6.074;2022-08-19T10:11:09;19.20;;;9.68;;
17618;SDS011;8928;51.678;6.074;2022-08-19T10:13:56;15.40;;;10.10;;
17618;SDS011;8928;51.678;6.074;2022-08-19T10:16:44;14.88;;;9.65;;
17618;SDS011;8928;51.678;6.074;2022-08-19T10:19:31;18.85;;;10.48;;
17618;SDS011;8928;51.678;6.074;2022-08-19T10:22:21;17.52;;;10.55;;
17618;SDS011;8928;51.678;6.074;2022-08-19T10:25:10;19.20;;;10.75;;
17618;SDS011;8928;51.678;6.074;2022-08-19T10:27:57;18.85;;;11.40;;
17618;SDS011;8928;51.678;6.074;2022-08-19T10:30:45;16.95;;;10.68;;
17618;SDS011;8928;51.678;6.074;2022-08-19T10:33:33;16.58;;;10.43;;
17618;SDS011;8928;51.678;6.074;2022-08-19T10:36:21;18.48;;;13.05;;
17618;SDS011;8928;51.678;6.074;2022-08-19T10:39:09;23.02;;;12.52;;
17618;SDS011;8928;51.678;6.074;2022-08-19T10:41:59;28.88;;;19.35;;
17618;SDS011;8928;51.678;6.074;2022-08-19T10:44:50;31.15;;;22.88;;
17618;SDS011;8928;51.678;6.074;2022-08-19T10:47:37;39.67;;;25.45;;
17618;SDS011;8928;51.678;6.074;2022-08-19T10:50:24;38.85;;;27.30;;
17618;SDS011;8928;51.678;6.074;2022-08-19T10:53:28;36.30;;;25.20;;
17618;SDS011;8928;51.678;6.074;2022-08-19T10:56:16;35.33;;;25.52;;
17618;SDS011;8928;51.678;6.074;2022-08-19T10:59:24;38.67;;;24.55;;
17618;SDS011;8928;51.678;6.074;2022-08-19T11:02:13;37.28;;;24.80;;
17618;SDS011;8928;51.678;6.074;2022-08-19T11:05:00;34.95;;;24.52;;
17618;SDS011;8928;51.678;6.074;2022-08-19T11:07:48;32.63;;;23.13;;
17618;SDS011;8928;51.678;6.074;2022-08-19T11:10:35;39.03;;;24.15;;
17618;SDS011;8928;51.678;6.074;2022-08-19T11:13:22;32.90;;;21.88;;
17618;SDS011;8928;51.678;6.074;2022-08-19T11:16:12;32.53;;;22.98;;
17618;SDS011;8928;51.678;6.074;2022-08-19T11:19:01;33.22;;;22.00;;
17618;SDS011;8928;51.678;6.074;2022-08-19T11:21:49;30.20;;;21.55;;
17618;SDS011;8928;51.678;6.074;2022-08-19T11:24:37;28.80;;;20.50;;
17618;SDS011;8928;51.678;6.074;2022-08-19T11:27:24;35.10;;;21.40;;
17618;SDS011;8928;51.678;6.074;2022-08-19T11:30:12;29.88;;;19.45;;
17618;SDS011;8928;51.678;6.074;2022-08-19T11:33:02;28.88;;;20.30;;
17618;SDS011;8928;51.678;6.074;2022-08-19T11:35:49;29.35;;;19.40;;
17618;SDS011;8928;51.678;6.074;2022-08-19T11:38:36;28.75;;;19.40;;
17618;SDS011;8928;51.678;6.074;2022-08-19T11:41:23;29.42;;;19.95;;
17618;SDS011;8928;51.678;6.074;2022-08-19T11:44:11;30.05;;;18.77;;
17618;SDS011;8928;51.678;6.074;2022-08-19T11:46:59;31.77;;;18.75;;
17618;SDS011;8928;51.678;6.074;2022-08-19T11:49:48;27.15;;;17.30;;
17618;SDS011;8928;51.678;6.074;2022-08-19T11:52:35;27.48;;;17.70;;
17618;SDS011;8928;51.678;6.074;2022-08-19T11:55:22;27.80;;;18.42;;
17618;SDS011;8928;51.678;6.074;2022-08-19T11:58:09;24.95;;;17.08;;
17618;SDS011;8928;51.678;6.074;2022-08-19T12:00:57;29.45;;;18.77;;
17618;SDS011;8928;51.678;6.074;2022-08-19T12:03:44;26.67;;;17.83;;
17618;SDS011;8928;51.678;6.074;2022-08-19T12:06:37;24.30;;;15.73;;
17618;SDS011;8928;51.678;6.074;2022-08-19T12:09:26;22.75;;;15.40;;
17618;SDS011;8928;51.678;6.074;2022-08-19T12:12:13;27.25;;;16.63;;
17618;SDS011;8928;51.678;6.074;2022-08-19T12:15:01;27.60;;;16.85;;
17618;SDS011;8928;51.678;6.074;2022-08-19T12:17:48;27.60;;;17.73;;
17618;SDS011;8928;51.678;6.074;2022-08-19T12:20:36;27.38;;;15.68;;
17618;SDS011;8928;51.678;6.074;2022-08-19T12:23:26;26.58;;;17.13;;
17618;SDS011;8928;51.678;6.074;2022-08-19T12:26:13;33.00;;;17.85;;
17618;SDS011;8928;51.678;6.074;2022-08-19T12:29:00;30.92;;;18.33;;
17618;SDS011;8928;51.678;6.074;2022-08-19T12:31:48;31.67;;;20.88;;
17618;SDS011;8928;51.678;6.074;2022-08-19T12:34:35;28.92;;;18.63;;
17618;SDS011;8928;51.678;6.074;2022-08-19T12:37:22;28.33;;;19.38;;
17618;SDS011;8928;51.678;6.074;2022-08-19T12:40:11;29.25;;;19.20;;
17618;SDS011;8928;51.678;6.074;2022-08-19T12:42:58;23.17;;;15.75;;
17618;SDS011;8928;51.678;6.074;2022-08-19T12:45:45;23.48;;;15.23;;
17618;SDS011;8928;51.678;6.074;2022-08-19T12:48:33;26.20;;;16.52;;
17618;SDS011;8928;51.678;6.074;2022-08-19T12:51:21;26.27;;;16.75;;
17618;SDS011;8928;51.678;6.074;2022-08-19T12:54:08;28.33;;;17.75;;
17618;SDS011;8928;51.678;6.074;2022-08-19T12:56:56;23.35;;;15.40;;
17618;SDS011;8928;51.678;6.074;2022-08-19T12:59:45;25.30;;;17.55;;
17618;SDS011;8928;51.678;6.074;2022-08-19T13:02:32;23.75;;;16.52;;
17618;SDS011;8928;51.678;6.074;2022-08-19T13:05:22;25.83;;;17.10;;
17618;SDS011;8928;51.678;6.074;2022-08-19T13:08:10;28.02;;;17.10;;
17618;SDS011;8928;51.678;6.074;2022-08-19T13:10:57;27.42;;;17.88;;
17618;SDS011;8928;51.678;6.074;2022-08-19T13:13:55;26.50;;;18.35;;
17618;SDS011;8928;51.678;6.074;2022-08-19T13:16:42;24.33;;;16.95;;
17618;SDS011;8928;51.678;6.074;2022-08-19T13:19:29;23.48;;;16.75;;
17618;SDS011;8928;51.678;6.074;2022-08-19T13:22:16;25.77;;;16.33;;
17618;SDS011;8928;51.678;6.074;2022-08-19T13:25:04;28.92;;;16.38;;
17618;SDS011;8928;51.678;6.074;2022-08-19T13:27:52;25.10;;;17.15;;
17618;SDS011;8928;51.678;6.074;2022-08-19T13:30:41;28.15;;;16.13;;
17618;SDS011;8928;51.678;6.074;2022-08-19T13:33:50;25.35;;;17.30;;
17618;SDS011;8928;51.678;6.074;2022-08-19T13:36:37;23.88;;;15.52;;
17618;SDS011;8928;51.678;6.074;2022-08-19T13:39:25;21.10;;;13.15;;
17618;SDS011;8928;51.678;6.074;2022-08-19T13:42:12;21.65;;;15.40;;
17618;SDS011;8928;51.678;6.074;2022-08-19T13:44:59;24.90;;;14.82;;
17618;SDS011;8928;51.678;6.074;2022-08-19T13:47:48;20.85;;;14.90;;
17618;SDS011;8928;51.678;6.074;2022-08-19T13:50:38;19.45;;;15.45;;
17618;SDS011;8928;51.678;6.074;2022-08-19T13:53:26;31.77;;;15.55;;
17618;SDS011;8928;51.678;6.074;2022-08-19T13:56:16;21.75;;;15.52;;
17618;SDS011;8928;51.678;6.074;2022-08-19T13:59:05;22.00;;;15.00;;
17618;SDS011;8928;51.678;6.074;2022-08-19T14:01:52;21.02;;;14.25;;
17618;SDS011;8928;51.678;6.074;2022-08-19T14:04:40;23.23;;;15.95;;
17618;SDS011;8928;51.678;6.074;2022-08-19T14:07:28;23.52;;;14.70;;
17618;SDS011;8928;51.678;6.074;2022-08-19T14:10:15;20.63;;;13.13;;
17618;SDS011;8928;51.678;6.074;2022-08-19T14:13:03;20.27;;;14.15;;
17618;SDS011;8928;51.678;6.074;2022-08-19T14:15:50;21.75;;;14.90;;
17618;SDS011;8928;51.678;6.074;2022-08-19T14:18:38;20.60;;;14.38;;
17618;SDS011;8928;51.678;6.074;2022-08-19T14:21:27;18.42;;;13.07;;
17618;SDS011;8928;51.678;6.074;2022-08-19T14:24:14;20.40;;;11.85;;
17618;SDS011;8928;51.678;6.074;2022-08-19T14:27:01;17.08;;;11.82;;
17618;SDS011;8928;51.678;6.074;2022-08-19T14:29:48;21.17;;;13.40;;
17618;SDS011;8928;51.678;6.074;2022-08-19T14:32:35;21.48;;;13.40;;
17618;SDS011;8928;51.678;6.074;2022-08-19T14:35:23;18.23;;;11.57;;
17618;SDS011;8928;51.678;6.074;2022-08-19T14:38:16;18.73;;;12.82;;
17618;SDS011;8928;51.678;6.074;2022-08-19T14:41:08;20.52;;;12.88;;
17618;SDS011;8928;51.678;6.074;2022-08-19T14:43:57;18.42;;;13.10;;
17618;SDS011;8928;51.678;6.074;2022-08-19T14:46:45;25.33;;;14.82;;
17618;SDS011;8928;51.678;6.074;2022-08-19T14:49:33;27.50;;;16.75;;
17618;SDS011;8928;51.678;6.074;2022-08-19T14:52:20;24.20;;;15.68;;
17618;SDS011;8928;51.678;6.074;2022-08-19T14:55:09;33.20;;;15.93;;
17618;SDS011;8928;51.678;6.074;2022-08-19T14:57:56;26.33;;;15.65;;
17618;SDS011;8928;51.678;6.074;2022-08-19T15:00:44;26.45;;;18.02;;
17618;SDS011;8928;51.678;6.074;2022-08-19T15:03:31;26.10;;;17.08;;
17618;SDS011;8928;51.678;6.074;2022-08-19T15:06:18;24.92;;;17.20;;
17618;SDS011;8928;51.678;6.074;2022-08-19T15:09:06;20.77;;;15.77;;
17618;SDS011;8928;51.678;6.074;2022-08-19T15:11:55;24.92;;;15.75;;
17618;SDS011;8928;51.678;6.074;2022-08-19T15:14:44;25.13;;;15.50;;
17618;SDS011;8928;51.678;6.074;2022-08-19T15:17:35;25.73;;;15.85;;
17618;SDS011;8928;51.678;6.074;2022-08-19T15:20:23;21.65;;;15.55;;
17618;SDS011;8928;51.678;6.074;2022-08-19T15:23:10;25.02;;;15.75;;
17618;SDS011;8928;51.678;6.074;2022-08-19T15:25:57;22.35;;;16.30;;
17618;SDS011;8928;51.678;6.074;2022-08-19T15:28:46;28.85;;;19.02;;
17618;SDS011;8928;51.678;6.074;2022-08-19T15:31:33;28.73;;;18.88;;
17618;SDS011;8928;51.678;6.074;2022-08-19T15:34:21;28.63;;;18.77;;
17618;SDS011;8928;51.678;6.074;2022-08-19T15:37:08;25.20;;;17.00;;
17618;SDS011;8928;51.678;6.074;2022-08-19T15:39:55;25.52;;;16.20;;
17618;SDS011;8928;51.678;6.074;2022-08-19T15:42:42;21.63;;;14.13;;
17618;SDS011;8928;51.678;6.074;2022-08-19T15:45:31;19.98;;;12.52;;
17618;SDS011;8928;51.678;6.074;2022-08-19T15:48:18;18.23;;;11.35;;
17618;SDS011;8928;51.678;6.074;2022-08-19T15:51:05;16.92;;;10.00;;
17618;SDS011;8928;51.678;6.074;2022-08-19T15:53:52;14.43;;;5.72;;
17618;SDS011;8928;51.678;6.074;2022-08-19T15:56:40;4.53;;;3.20;;
17618;SDS011;8928;51.678;6.074;2022-08-19T15:59:44;5.60;;;3.90;;
17618;SDS011;8928;51.678;6.074;2022-08-19T16:02:51;6.82;;;3.50;;
17618;SDS011;8928;51.678;6.074;2022-08-19T16:05:55;7.57;;;3.78;;
17618;SDS011;8928;51.678;6.074;2022-08-19T16:09:00;7.47;;;4.93;;
17618;SDS011;8928;51.678;6.074;2022-08-19T16:11:49;10.73;;;5.72;;
17618;SDS011;8928;51.678;6.074;2022-08-19T16:14:37;11.13;;;6.30;;
17618;SDS011;8928;51.678;6.074;2022-08-19T16:17:24;11.95;;;6.63;;
17618;SDS011;8928;51.678;6.074;2022-08-19T16:20:13;11.93;;;7.90;;
17618;SDS011;8928;51.678;6.074;2022-08-19T16:23:01;18.33;;;9.70;;
17618;SDS011;8928;51.678;6.074;2022-08-19T16:25:49;14.73;;;9.43;;
17618;SDS011;8928;51.678;6.074;2022-08-19T16:28:36;20.58;;;10.80;;
17618;SDS011;8928;51.678;6.074;2022-08-19T16:31:24;18.20;;;10.93;;
17618;SDS011;8928;51.678;6.074;2022-08-19T16:34:12;18.33;;;11.05;;
17618;SDS011;8928;51.678;6.074;2022-08-19T16:37:01;20.65;;;11.27;;
17618;SDS011;8928;51.678;6.074;2022-08-19T16:39:48;20.38;;;11.52;;
17618;SDS011;8928;51.678;6.074;2022-08-19T16:42:35;23.58;;;11.75;;